Air Navigation Services of Czech Republic
Airport: LKPR Updated:  20.02.2017 21:03:29  UTC
 METAR LKPR 20.02. 21:00 ...
METAR LKPR 202100Z 24023G33KT 9999 FEW009 BKN032 06/04 Q1011 NOSIG=
 TAF LKPR 20.02. 17:00 ...
TAF LKPR 201700Z 2018/2200 23014KT 9999 BKN023      TEMPO 2018/2200 25016G26KT      TEMPO 2018/2118 5000 RA BKN014      PROB40 TEMPO 2018/2110 26024G36KT 2500 RA BKN009=